sensor_id;sensor_type;location;lat;lon;timestamp;temperature;humidity
5775;DHT22;2913;51.120;6.772;2023-09-12T00:03:38;21.80;99.90
5775;DHT22;2913;51.120;6.772;2023-09-12T00:11:02;21.90;99.90
5775;DHT22;2913;51.120;6.772;2023-09-12T00:13:29;21.90;99.90
5775;DHT22;2913;51.120;6.772;2023-09-12T00:18:23;21.80;99.90
5775;DHT22;2913;51.120;6.772;2023-09-12T00:20:50;21.70;99.90
5775;DHT22;2913;51.120;6.772;2023-09-12T00:23:16;21.60;99.90
5775;DHT22;2913;51.120;6.772;2023-09-12T00:25:41;21.50;99.90
5775;DHT22;2913;51.120;6.772;2023-09-12T00:28:10;21.40;99.90
5775;DHT22;2913;51.120;6.772;2023-09-12T00:30:36;21.30;99.90
5775;DHT22;2913;51.120;6.772;2023-09-12T00:35:29;21.30;99.90
5775;DHT22;2913;51.120;6.772;2023-09-12T00:40:21;21.20;99.90
5775;DHT22;2913;51.120;6.772;2023-09-12T00:42:47;21.30;99.90
5775;DHT22;2913;51.120;6.772;2023-09-12T00:45:15;21.30;99.90
5775;DHT22;2913;51.120;6.772;2023-09-12T00:47:41;21.30;99.90
5775;DHT22;2913;51.120;6.772;2023-09-12T00:50:07;21.40;99.90
5775;DHT22;2913;51.120;6.772;2023-09-12T00:52:34;21.50;99.90
5775;DHT22;2913;51.120;6.772;2023-09-12T00:57:28;21.50;99.90
5775;DHT22;2913;51.120;6.772;2023-09-12T00:59:54;21.50;99.90
5775;DHT22;2913;51.120;6.772;2023-09-12T01:02:21;21.50;99.90
5775;DHT22;2913;51.120;6.772;2023-09-12T01:04:52;21.40;99.90
5775;DHT22;2913;51.120;6.772;2023-09-12T01:07:20;21.40;99.90
5775;DHT22;2913;51.120;6.772;2023-09-12T01:12:12;21.50;99.90
5775;DHT22;2913;51.120;6.772;2023-09-12T01:14:40;21.30;99.90
5775;DHT22;2913;51.120;6.772;2023-09-12T01:17:08;21.20;99.90
5775;DHT22;2913;51.120;6.772;2023-09-12T01:19:37;21.20;99.90
5775;DHT22;2913;51.120;6.772;2023-09-12T01:25:06;21.20;99.90
5775;DHT22;2913;51.120;6.772;2023-09-12T01:27:38;21.30;99.90
5775;DHT22;2913;51.120;6.772;2023-09-12T01:30:08;21.30;99.90
5775;DHT22;2913;51.120;6.772;2023-09-12T01:32:37;21.10;99.90
5775;DHT22;2913;51.120;6.772;2023-09-12T01:35:04;21.30;99.90
5775;DHT22;2913;51.120;6.772;2023-09-12T01:37:33;21.40;99.90
5775;DHT22;2913;51.120;6.772;2023-09-12T01:39:58;21.30;99.90
5775;DHT22;2913;51.120;6.772;2023-09-12T01:42:31;21.30;99.90
5775;DHT22;2913;51.120;6.772;2023-09-12T01:45:01;21.20;99.90
5775;DHT22;2913;51.120;6.772;2023-09-12T01:47:28;21.20;99.90
5775;DHT22;2913;51.120;6.772;2023-09-12T01:49:57;21.20;99.90
5775;DHT22;2913;51.120;6.772;2023-09-12T01:52:25;21.10;99.90
5775;DHT22;2913;51.120;6.772;2023-09-12T01:54:51;21.10;99.90
5775;DHT22;2913;51.120;6.772;2023-09-12T01:57:18;21.00;99.90
5775;DHT22;2913;51.120;6.772;2023-09-12T01:59:48;20.90;99.90
5775;DHT22;2913;51.120;6.772;2023-09-12T02:02:21;20.90;99.90
5775;DHT22;2913;51.120;6.772;2023-09-12T02:04:53;21.00;99.90
5775;DHT22;2913;51.120;6.772;2023-09-12T02:07:22;21.10;99.90
5775;DHT22;2913;51.120;6.772;2023-09-12T02:14:41;21.10;99.90
5775;DHT22;2913;51.120;6.772;2023-09-12T02:17:13;21.10;99.90
5775;DHT22;2913;51.120;6.772;2023-09-12T02:19:41;21.10;99.90
5775;DHT22;2913;51.120;6.772;2023-09-12T02:22:09;21.20;99.90
5775;DHT22;2913;51.120;6.772;2023-09-12T02:24:35;21.20;99.90
5775;DHT22;2913;51.120;6.772;2023-09-12T02:27:03;21.10;99.90
5775;DHT22;2913;51.120;6.772;2023-09-12T02:29:31;21.10;99.90
5775;DHT22;2913;51.120;6.772;2023-09-12T02:31:58;21.10;99.90
5775;DHT22;2913;51.120;6.772;2023-09-12T02:34:24;21.00;99.90
5775;DHT22;2913;51.120;6.772;2023-09-12T02:39:15;20.90;99.90
5775;DHT22;2913;51.120;6.772;2023-09-12T02:41:41;20.80;99.90
5775;DHT22;2913;51.120;6.772;2023-09-12T02:44:09;20.70;99.90
5775;DHT22;2913;51.120;6.772;2023-09-12T02:46:39;20.70;99.90
5775;DHT22;2913;51.120;6.772;2023-09-12T02:49:07;20.80;99.90
5775;DHT22;2913;51.120;6.772;2023-09-12T02:51:38;20.80;99.90
5775;DHT22;2913;51.120;6.772;2023-09-12T02:54:07;20.70;99.90
5775;DHT22;2913;51.120;6.772;2023-09-12T02:56:35;20.70;99.90
5775;DHT22;2913;51.120;6.772;2023-09-12T02:59:00;20.80;99.90
5775;DHT22;2913;51.120;6.772;2023-09-12T03:03:57;20.80;99.90
5775;DHT22;2913;51.120;6.772;2023-09-12T03:06:23;20.90;99.90
5775;DHT22;2913;51.120;6.772;2023-09-12T03:08:48;20.90;99.90
5775;DHT22;2913;51.120;6.772;2023-09-12T03:13:42;20.90;99.90
5775;DHT22;2913;51.120;6.772;2023-09-12T03:16:14;21.00;99.90
5775;DHT22;2913;51.120;6.772;2023-09-12T03:18:40;20.90;99.90
5775;DHT22;2913;51.120;6.772;2023-09-12T03:21:08;20.90;99.90
5775;DHT22;2913;51.120;6.772;2023-09-12T03:23:34;20.90;99.90
5775;DHT22;2913;51.120;6.772;2023-09-12T03:26:06;20.90;99.90
5775;DHT22;2913;51.120;6.772;2023-09-12T03:28:37;20.90;99.90
5775;DHT22;2913;51.120;6.772;2023-09-12T03:31:13;21.00;99.90
5775;DHT22;2913;51.120;6.772;2023-09-12T03:33:42;20.80;99.90
5775;DHT22;2913;51.120;6.772;2023-09-12T03:36:13;20.80;99.90
5775;DHT22;2913;51.120;6.772;2023-09-12T03:38:38;20.80;99.90
5775;DHT22;2913;51.120;6.772;2023-09-12T03:41:04;20.80;99.90
5775;DHT22;2913;51.120;6.772;2023-09-12T03:43:30;20.80;99.90
5775;DHT22;2913;51.120;6.772;2023-09-12T03:45:56;20.90;99.90
5775;DHT22;2913;51.120;6.772;2023-09-12T03:53:14;20.90;99.90
5775;DHT22;2913;51.120;6.772;2023-09-12T03:55:43;20.90;99.90
5775;DHT22;2913;51.120;6.772;2023-09-12T03:58:09;20.80;99.90
5775;DHT22;2913;51.120;6.772;2023-09-12T04:00:37;20.90;99.90
5775;DHT22;2913;51.120;6.772;2023-09-12T04:03:03;21.00;99.90
5775;DHT22;2913;51.120;6.772;2023-09-12T04:05:28;21.00;99.90
5775;DHT22;2913;51.120;6.772;2023-09-12T04:12:49;21.00;99.90
5775;DHT22;2913;51.120;6.772;2023-09-12T04:15:17;21.10;99.90
5775;DHT22;2913;51.120;6.772;2023-09-12T04:22:43;21.10;99.90
5775;DHT22;2913;51.120;6.772;2023-09-12T04:25:11;21.10;99.90
5775;DHT22;2913;51.120;6.772;2023-09-12T04:30:03;21.10;99.90
5775;DHT22;2913;51.120;6.772;2023-09-12T04:32:29;21.20;99.90
5775;DHT22;2913;51.120;6.772;2023-09-12T04:34:58;21.10;99.90
5775;DHT22;2913;51.120;6.772;2023-09-12T04:37:25;21.20;99.90
5775;DHT22;2913;51.120;6.772;2023-09-12T04:39:51;21.10;99.90
5775;DHT22;2913;51.120;6.772;2023-09-12T04:42:17;21.20;99.90
5775;DHT22;2913;51.120;6.772;2023-09-12T04:44:42;21.00;99.90
5775;DHT22;2913;51.120;6.772;2023-09-12T04:47:13;20.70;99.90
5775;DHT22;2913;51.120;6.772;2023-09-12T04:49:46;20.80;99.90
5775;DHT22;2913;51.120;6.772;2023-09-12T04:52:12;20.90;99.90
5775;DHT22;2913;51.120;6.772;2023-09-12T04:54:39;20.90;99.90
5775;DHT22;2913;51.120;6.772;2023-09-12T04:57:05;20.90;99.90
5775;DHT22;2913;51.120;6.772;2023-09-12T05:01:59;20.90;99.90
5775;DHT22;2913;51.120;6.772;2023-09-12T05:04:28;20.90;99.90
5775;DHT22;2913;51.120;6.772;2023-09-12T05:06:56;20.90;99.90
5775;DHT22;2913;51.120;6.772;2023-09-12T05:09:24;20.90;99.90
5775;DHT22;2913;51.120;6.772;2023-09-12T05:11:52;20.90;99.90
5775;DHT22;2913;51.120;6.772;2023-09-12T05:14:17;20.90;99.90
5775;DHT22;2913;51.120;6.772;2023-09-12T05:16:43;20.80;99.90
5775;DHT22;2913;51.120;6.772;2023-09-12T05:19:11;20.80;99.90
5775;DHT22;2913;51.120;6.772;2023-09-12T05:21:36;20.80;99.90
5775;DHT22;2913;51.120;6.772;2023-09-12T05:24:02;20.80;99.90
5775;DHT22;2913;51.120;6.772;2023-09-12T05:26:28;20.80;99.90
5775;DHT22;2913;51.120;6.772;2023-09-12T05:28:53;20.80;99.90
5775;DHT22;2913;51.120;6.772;2023-09-12T05:31:19;20.90;99.90
5775;DHT22;2913;51.120;6.772;2023-09-12T05:33:47;20.90;99.90
5775;DHT22;2913;51.120;6.772;2023-09-12T05:36:14;20.90;99.90
5775;DHT22;2913;51.120;6.772;2023-09-12T05:38:39;20.90;99.90
5775;DHT22;2913;51.120;6.772;2023-09-12T05:41:05;20.90;99.90
5775;DHT22;2913;51.120;6.772;2023-09-12T05:43:34;20.90;99.90
5775;DHT22;2913;51.120;6.772;2023-09-12T05:46:02;20.90;99.90
5775;DHT22;2913;51.120;6.772;2023-09-12T05:48:27;20.90;99.90
5775;DHT22;2913;51.120;6.772;2023-09-12T05:50:55;20.80;99.90
5775;DHT22;2913;51.120;6.772;2023-09-12T05:53:21;20.80;99.90
5775;DHT22;2913;51.120;6.772;2023-09-12T05:55:46;20.70;99.90
5775;DHT22;2913;51.120;6.772;2023-09-12T05:58:12;20.60;99.90
5775;DHT22;2913;51.120;6.772;2023-09-12T06:00:38;20.60;99.90
5775;DHT22;2913;51.120;6.772;2023-09-12T06:03:04;20.70;99.90
5775;DHT22;2913;51.120;6.772;2023-09-12T06:05:29;20.60;99.90
5775;DHT22;2913;51.120;6.772;2023-09-12T06:07:55;20.60;99.90
5775;DHT22;2913;51.120;6.772;2023-09-12T06:10:25;20.50;99.90
5775;DHT22;2913;51.120;6.772;2023-09-12T06:12:53;20.60;99.90
5775;DHT22;2913;51.120;6.772;2023-09-12T06:15:18;20.70;99.90
5775;DHT22;2913;51.120;6.772;2023-09-12T06:17:46;20.80;99.90
5775;DHT22;2913;51.120;6.772;2023-09-12T06:20:14;20.80;99.90
5775;DHT22;2913;51.120;6.772;2023-09-12T06:22:42;20.90;99.90
5775;DHT22;2913;51.120;6.772;2023-09-12T06:27:34;20.90;99.90
5775;DHT22;2913;51.120;6.772;2023-09-12T06:30:00;21.00;99.90
5775;DHT22;2913;51.120;6.772;2023-09-12T06:34:55;21.10;99.90
5775;DHT22;2913;51.120;6.772;2023-09-12T06:37:25;21.10;99.90
5775;DHT22;2913;51.120;6.772;2023-09-12T06:39:53;21.10;99.90
5775;DHT22;2913;51.120;6.772;2023-09-12T06:44:47;21.20;99.90
5775;DHT22;2913;51.120;6.772;2023-09-12T06:47:13;21.30;99.90
5775;DHT22;2913;51.120;6.772;2023-09-12T06:49:38;21.40;99.90
5775;DHT22;2913;51.120;6.772;2023-09-12T06:52:04;21.30;99.90
5775;DHT22;2913;51.120;6.772;2023-09-12T06:54:30;21.30;99.90
5775;DHT22;2913;51.120;6.772;2023-09-12T06:59:22;21.20;99.90
5775;DHT22;2913;51.120;6.772;2023-09-12T07:01:47;21.10;99.90
5775;DHT22;2913;51.120;6.772;2023-09-12T07:04:13;21.20;99.90
5775;DHT22;2913;51.120;6.772;2023-09-12T07:09:08;21.20;99.90
5775;DHT22;2913;51.120;6.772;2023-09-12T07:11:34;21.40;99.90
5775;DHT22;2913;51.120;6.772;2023-09-12T07:14:00;21.30;99.90
5775;DHT22;2913;51.120;6.772;2023-09-12T07:21:20;21.40;99.90
5775;DHT22;2913;51.120;6.772;2023-09-12T07:23:50;21.70;99.90
5775;DHT22;2913;51.120;6.772;2023-09-12T07:26:15;21.80;99.90
5775;DHT22;2913;51.120;6.772;2023-09-12T07:28:44;22.00;99.90
5775;DHT22;2913;51.120;6.772;2023-09-12T07:33:36;22.60;99.90
5775;DHT22;2913;51.120;6.772;2023-09-12T07:36:01;22.80;99.90
5775;DHT22;2913;51.120;6.772;2023-09-12T07:38:30;22.80;99.90
5775;DHT22;2913;51.120;6.772;2023-09-12T07:41:02;22.90;99.90
5775;DHT22;2913;51.120;6.772;2023-09-12T07:43:28;23.20;99.90
5775;DHT22;2913;51.120;6.772;2023-09-12T07:46:00;23.40;99.90
5775;DHT22;2913;51.120;6.772;2023-09-12T07:48:28;23.30;99.90
5775;DHT22;2913;51.120;6.772;2023-09-12T07:50:53;23.30;99.90
5775;DHT22;2913;51.120;6.772;2023-09-12T07:55:45;23.50;99.90
5775;DHT22;2913;51.120;6.772;2023-09-12T07:58:15;23.70;99.90
5775;DHT22;2913;51.120;6.772;2023-09-12T08:00:46;23.70;99.90
5775;DHT22;2913;51.120;6.772;2023-09-12T08:03:11;23.80;99.90
5775;DHT22;2913;51.120;6.772;2023-09-12T08:08:03;23.70;99.90
5775;DHT22;2913;51.120;6.772;2023-09-12T08:10:29;23.20;99.90
5775;DHT22;2913;51.120;6.772;2023-09-12T08:12:57;23.30;99.90
5775;DHT22;2913;51.120;6.772;2023-09-12T08:17:53;23.20;99.90
5775;DHT22;2913;51.120;6.772;2023-09-12T08:20:22;23.20;99.90
5775;DHT22;2913;51.120;6.772;2023-09-12T08:22:48;23.30;99.90
5775;DHT22;2913;51.120;6.772;2023-09-12T08:25:16;23.60;99.90
5775;DHT22;2913;51.120;6.772;2023-09-12T08:30:12;23.70;99.90
5775;DHT22;2913;51.120;6.772;2023-09-12T08:32:41;23.80;99.90
5775;DHT22;2913;51.120;6.772;2023-09-12T08:35:13;24.00;99.90
5775;DHT22;2913;51.120;6.772;2023-09-12T08:40:08;24.30;99.90
5775;DHT22;2913;51.120;6.772;2023-09-12T08:42:40;24.30;99.90
5775;DHT22;2913;51.120;6.772;2023-09-12T08:45:15;24.10;99.90
5775;DHT22;2913;51.120;6.772;2023-09-12T08:47:48;24.30;99.90
5775;DHT22;2913;51.120;6.772;2023-09-12T08:50:15;24.10;99.90
5775;DHT22;2913;51.120;6.772;2023-09-12T08:52:46;24.30;99.90
5775;DHT22;2913;51.120;6.772;2023-09-12T08:55:13;24.30;99.90
5775;DHT22;2913;51.120;6.772;2023-09-12T08:57:43;24.40;99.90
5775;DHT22;2913;51.120;6.772;2023-09-12T09:00:10;24.50;99.90
5775;DHT22;2913;51.120;6.772;2023-09-12T09:02:39;24.40;99.90
5775;DHT22;2913;51.120;6.772;2023-09-12T09:05:06;24.50;99.90
5775;DHT22;2913;51.120;6.772;2023-09-12T09:07:43;24.60;99.90
5775;DHT22;2913;51.120;6.772;2023-09-12T09:10:17;24.80;99.90
5775;DHT22;2913;51.120;6.772;2023-09-12T09:12:45;24.90;99.90
5775;DHT22;2913;51.120;6.772;2023-09-12T09:15:29;24.80;99.90
5775;DHT22;2913;51.120;6.772;2023-09-12T09:18:01;24.60;99.90
5775;DHT22;2913;51.120;6.772;2023-09-12T09:20:29;24.60;99.90
5775;DHT22;2913;51.120;6.772;2023-09-12T09:25:24;24.90;99.90
5775;DHT22;2913;51.120;6.772;2023-09-12T09:27:50;24.80;99.90
5775;DHT22;2913;51.120;6.772;2023-09-12T09:30:18;24.70;99.90
5775;DHT22;2913;51.120;6.772;2023-09-12T09:32:47;24.70;99.90
5775;DHT22;2913;51.120;6.772;2023-09-12T09:35:21;24.70;99.90
5775;DHT22;2913;51.120;6.772;2023-09-12T09:37:49;24.80;99.90
5775;DHT22;2913;51.120;6.772;2023-09-12T09:40:15;24.90;99.90
5775;DHT22;2913;51.120;6.772;2023-09-12T09:42:43;24.90;99.90
5775;DHT22;2913;51.120;6.772;2023-09-12T09:45:11;24.80;99.90
5775;DHT22;2913;51.120;6.772;2023-09-12T09:47:40;24.80;99.90
5775;DHT22;2913;51.120;6.772;2023-09-12T09:50:08;24.90;99.90
5775;DHT22;2913;51.120;6.772;2023-09-12T09:52:41;25.10;99.90
5775;DHT22;2913;51.120;6.772;2023-09-12T09:55:13;25.10;99.90
5775;DHT22;2913;51.120;6.772;2023-09-12T09:57:42;25.00;99.90
5775;DHT22;2913;51.120;6.772;2023-09-12T10:00:12;25.20;99.90
5775;DHT22;2913;51.120;6.772;2023-09-12T10:02:40;25.30;99.90
5775;DHT22;2913;51.120;6.772;2023-09-12T10:05:09;25.30;99.90
5775;DHT22;2913;51.120;6.772;2023-09-12T10:07:39;24.90;99.90
5775;DHT22;2913;51.120;6.772;2023-09-12T10:10:06;24.80;99.90
5775;DHT22;2913;51.120;6.772;2023-09-12T10:12:35;24.80;99.90
5775;DHT22;2913;51.120;6.772;2023-09-12T10:15:01;25.00;99.90
5775;DHT22;2913;51.120;6.772;2023-09-12T10:17:35;25.20;99.90
5775;DHT22;2913;51.120;6.772;2023-09-12T10:20:09;25.30;99.90
5775;DHT22;2913;51.120;6.772;2023-09-12T10:22:59;25.40;99.90
5775;DHT22;2913;51.120;6.772;2023-09-12T10:25:31;25.60;99.90
5775;DHT22;2913;51.120;6.772;2023-09-12T10:27:57;25.40;99.90
5775;DHT22;2913;51.120;6.772;2023-09-12T10:30:24;25.20;99.90
5775;DHT22;2913;51.120;6.772;2023-09-12T10:32:51;25.30;99.90
5775;DHT22;2913;51.120;6.772;2023-09-12T10:37:46;25.30;99.90
5775;DHT22;2913;51.120;6.772;2023-09-12T10:40:17;25.40;99.90
5775;DHT22;2913;51.120;6.772;2023-09-12T10:42:42;25.50;99.90
5775;DHT22;2913;51.120;6.772;2023-09-12T10:45:12;25.20;99.90
5775;DHT22;2913;51.120;6.772;2023-09-12T10:47:39;25.50;99.90
5775;DHT22;2913;51.120;6.772;2023-09-12T10:50:06;25.40;99.90
5775;DHT22;2913;51.120;6.772;2023-09-12T10:52:31;25.60;99.90
5775;DHT22;2913;51.120;6.772;2023-09-12T10:55:01;25.80;99.90
5775;DHT22;2913;51.120;6.772;2023-09-12T10:57:29;25.70;99.90
5775;DHT22;2913;51.120;6.772;2023-09-12T11:02:40;26.00;99.90
5775;DHT22;2913;51.120;6.772;2023-09-12T11:07:57;26.00;99.90
5775;DHT22;2913;51.120;6.772;2023-09-12T11:12:52;25.80;99.90
5775;DHT22;2913;51.120;6.772;2023-09-12T11:15:20;26.00;99.90
5775;DHT22;2913;51.120;6.772;2023-09-12T11:17:49;26.10;99.90
5775;DHT22;2913;51.120;6.772;2023-09-12T11:23:16;26.30;99.90
5775;DHT22;2913;51.120;6.772;2023-09-12T11:25:43;26.60;99.90
5775;DHT22;2913;51.120;6.772;2023-09-12T11:28:08;26.60;99.90
5775;DHT22;2913;51.120;6.772;2023-09-12T11:30:37;26.50;99.90
5775;DHT22;2913;51.120;6.772;2023-09-12T11:33:24;26.70;99.90
5775;DHT22;2913;51.120;6.772;2023-09-12T11:35:53;26.50;99.90
5775;DHT22;2913;51.120;6.772;2023-09-12T11:38:29;26.60;99.90
5775;DHT22;2913;51.120;6.772;2023-09-12T11:41:00;26.30;99.90
5775;DHT22;2913;51.120;6.772;2023-09-12T11:43:27;26.50;99.90
5775;DHT22;2913;51.120;6.772;2023-09-12T11:45:57;26.60;99.90
5775;DHT22;2913;51.120;6.772;2023-09-12T11:48:23;26.70;99.90
5775;DHT22;2913;51.120;6.772;2023-09-12T11:50:56;26.70;99.90
5775;DHT22;2913;51.120;6.772;2023-09-12T11:53:23;26.70;99.90
5775;DHT22;2913;51.120;6.772;2023-09-12T11:55:58;26.60;99.90
5775;DHT22;2913;51.120;6.772;2023-09-12T11:58:25;26.80;99.90
5775;DHT22;2913;51.120;6.772;2023-09-12T12:00:57;26.60;99.90
5775;DHT22;2913;51.120;6.772;2023-09-12T12:03:25;26.50;99.90
5775;DHT22;2913;51.120;6.772;2023-09-12T12:05:54;26.50;99.90
5775;DHT22;2913;51.120;6.772;2023-09-12T12:08:20;26.60;99.90
5775;DHT22;2913;51.120;6.772;2023-09-12T12:10:50;26.30;99.90
5775;DHT22;2913;51.120;6.772;2023-09-12T12:13:18;26.30;99.90
5775;DHT22;2913;51.120;6.772;2023-09-12T12:15:43;26.40;99.90
5775;DHT22;2913;51.120;6.772;2023-09-12T12:18:12;26.50;99.90
5775;DHT22;2913;51.120;6.772;2023-09-12T12:20:42;26.40;99.90
5775;DHT22;2913;51.120;6.772;2023-09-12T12:23:08;26.80;99.90
5775;DHT22;2913;51.120;6.772;2023-09-12T12:25:34;26.90;99.90
5775;DHT22;2913;51.120;6.772;2023-09-12T12:28:04;27.10;99.90
5775;DHT22;2913;51.120;6.772;2023-09-12T12:30:34;27.20;99.90
5775;DHT22;2913;51.120;6.772;2023-09-12T12:33:08;27.20;99.90
5775;DHT22;2913;51.120;6.772;2023-09-12T12:35:37;27.30;99.90
5775;DHT22;2913;51.120;6.772;2023-09-12T12:38:05;27.50;99.90
5775;DHT22;2913;51.120;6.772;2023-09-12T12:40:30;27.60;99.90
5775;DHT22;2913;51.120;6.772;2023-09-12T12:45:26;27.50;99.90
5775;DHT22;2913;51.120;6.772;2023-09-12T12:48:01;27.60;99.90
5775;DHT22;2913;51.120;6.772;2023-09-12T12:50:27;27.60;99.90
5775;DHT22;2913;51.120;6.772;2023-09-12T12:52:52;27.70;99.90
5775;DHT22;2913;51.120;6.772;2023-09-12T12:55:21;27.80;99.90
5775;DHT22;2913;51.120;6.772;2023-09-12T12:57:48;27.90;99.90
5775;DHT22;2913;51.120;6.772;2023-09-12T13:00:16;28.00;99.90
5775;DHT22;2913;51.120;6.772;2023-09-12T13:02:45;27.80;99.90
5775;DHT22;2913;51.120;6.772;2023-09-12T13:05:21;27.70;99.90
5775;DHT22;2913;51.120;6.772;2023-09-12T13:07:49;27.40;99.90
5775;DHT22;2913;51.120;6.772;2023-09-12T13:10:15;27.70;99.90
5775;DHT22;2913;51.120;6.772;2023-09-12T13:12:43;28.00;99.90
5775;DHT22;2913;51.120;6.772;2023-09-12T13:15:14;28.10;99.90
5775;DHT22;2913;51.120;6.772;2023-09-12T13:17:41;28.10;99.90
5775;DHT22;2913;51.120;6.772;2023-09-12T13:20:07;28.30;99.70
5775;DHT22;2913;51.120;6.772;2023-09-12T13:22:36;28.30;99.90
5775;DHT22;2913;51.120;6.772;2023-09-12T13:25:02;28.20;98.60
5775;DHT22;2913;51.120;6.772;2023-09-12T13:27:28;28.10;99.60
5775;DHT22;2913;51.120;6.772;2023-09-12T13:29:56;28.20;99.60
5775;DHT22;2913;51.120;6.772;2023-09-12T13:32:21;27.80;98.40
5775;DHT22;2913;51.120;6.772;2023-09-12T13:34:49;27.70;99.90
5775;DHT22;2913;51.120;6.772;2023-09-12T13:37:16;28.00;98.60
5775;DHT22;2913;51.120;6.772;2023-09-12T13:39:42;28.00;98.80
5775;DHT22;2913;51.120;6.772;2023-09-12T13:42:14;27.70;99.90
5775;DHT22;2913;51.120;6.772;2023-09-12T13:44:44;27.80;99.90
5775;DHT22;2913;51.120;6.772;2023-09-12T13:47:10;28.00;99.90
5775;DHT22;2913;51.120;6.772;2023-09-12T13:49:35;28.00;99.70
5775;DHT22;2913;51.120;6.772;2023-09-12T13:52:04;28.00;99.60
5775;DHT22;2913;51.120;6.772;2023-09-12T13:54:29;27.80;99.80
5775;DHT22;2913;51.120;6.772;2023-09-12T13:56:56;27.90;99.80
5775;DHT22;2913;51.120;6.772;2023-09-12T13:59:21;27.90;98.70
5775;DHT22;2913;51.120;6.772;2023-09-12T14:01:47;27.90;99.10
5775;DHT22;2913;51.120;6.772;2023-09-12T14:04:13;28.10;99.00
5775;DHT22;2913;51.120;6.772;2023-09-12T14:06:39;28.00;98.70
5775;DHT22;2913;51.120;6.772;2023-09-12T14:09:05;28.00;98.90
5775;DHT22;2913;51.120;6.772;2023-09-12T14:11:30;28.20;98.60
5775;DHT22;2913;51.120;6.772;2023-09-12T14:13:56;28.00;98.90
5775;DHT22;2913;51.120;6.772;2023-09-12T14:16:24;28.00;99.90
5775;DHT22;2913;51.120;6.772;2023-09-12T14:18:50;28.00;97.50
5775;DHT22;2913;51.120;6.772;2023-09-12T14:21:15;28.00;98.90
5775;DHT22;2913;51.120;6.772;2023-09-12T14:23:41;28.10;98.90
5775;DHT22;2913;51.120;6.772;2023-09-12T14:26:09;28.10;98.70
5775;DHT22;2913;51.120;6.772;2023-09-12T14:28:34;28.20;98.20
5775;DHT22;2913;51.120;6.772;2023-09-12T14:31:01;28.20;98.20
5775;DHT22;2913;51.120;6.772;2023-09-12T14:33:31;28.00;98.40
5775;DHT22;2913;51.120;6.772;2023-09-12T14:35:57;28.00;99.00
5775;DHT22;2913;51.120;6.772;2023-09-12T14:38:22;27.60;99.40
5775;DHT22;2913;51.120;6.772;2023-09-12T14:40:49;27.70;99.70
5775;DHT22;2913;51.120;6.772;2023-09-12T14:43:14;27.60;99.90
5775;DHT22;2913;51.120;6.772;2023-09-12T14:45:40;27.80;99.90
5775;DHT22;2913;51.120;6.772;2023-09-12T14:48:06;27.60;98.30
5775;DHT22;2913;51.120;6.772;2023-09-12T14:50:34;27.60;99.90
5775;DHT22;2913;51.120;6.772;2023-09-12T14:53:02;27.60;99.90
5775;DHT22;2913;51.120;6.772;2023-09-12T14:55:28;27.80;99.90
5775;DHT22;2913;51.120;6.772;2023-09-12T14:57:56;27.80;99.80
5775;DHT22;2913;51.120;6.772;2023-09-12T15:00:24;27.70;99.90
5775;DHT22;2913;51.120;6.772;2023-09-12T15:02:52;27.80;99.90
5775;DHT22;2913;51.120;6.772;2023-09-12T15:05:20;27.80;99.80
5775;DHT22;2913;51.120;6.772;2023-09-12T15:07:50;27.70;99.10
5775;DHT22;2913;51.120;6.772;2023-09-12T15:10:19;27.60;98.40
5775;DHT22;2913;51.120;6.772;2023-09-12T15:12:47;27.40;99.80
5775;DHT22;2913;51.120;6.772;2023-09-12T15:15:13;27.30;99.90
5775;DHT22;2913;51.120;6.772;2023-09-12T15:17:38;27.10;99.90
5775;DHT22;2913;51.120;6.772;2023-09-12T15:20:06;27.10;99.90
5775;DHT22;2913;51.120;6.772;2023-09-12T15:22:32;27.20;99.90
5775;DHT22;2913;51.120;6.772;2023-09-12T15:24:59;27.10;99.90
5775;DHT22;2913;51.120;6.772;2023-09-12T15:27:27;27.20;99.90
5775;DHT22;2913;51.120;6.772;2023-09-12T15:29:54;27.30;99.90
5775;DHT22;2913;51.120;6.772;2023-09-12T15:32:20;27.30;99.90
5775;DHT22;2913;51.120;6.772;2023-09-12T15:34:45;27.40;99.90
5775;DHT22;2913;51.120;6.772;2023-09-12T15:37:14;27.40;99.90
5775;DHT22;2913;51.120;6.772;2023-09-12T15:39:40;27.30;99.90
5775;DHT22;2913;51.120;6.772;2023-09-12T15:42:06;27.30;99.90
5775;DHT22;2913;51.120;6.772;2023-09-12T15:44:32;27.20;99.90
5775;DHT22;2913;51.120;6.772;2023-09-12T15:46:57;27.20;99.90
5775;DHT22;2913;51.120;6.772;2023-09-12T15:49:26;27.10;99.90
5775;DHT22;2913;51.120;6.772;2023-09-12T15:51:52;27.10;99.90
5775;DHT22;2913;51.120;6.772;2023-09-12T15:54:21;27.10;99.90
5775;DHT22;2913;51.120;6.772;2023-09-12T15:56:46;27.10;99.90
5775;DHT22;2913;51.120;6.772;2023-09-12T15:59:12;27.10;99.90
5775;DHT22;2913;51.120;6.772;2023-09-12T16:01:40;27.10;99.90
5775;DHT22;2913;51.120;6.772;2023-09-12T16:04:06;26.90;99.90
5775;DHT22;2913;51.120;6.772;2023-09-12T16:06:31;26.90;99.90
5775;DHT22;2913;51.120;6.772;2023-09-12T16:09:00;26.90;99.90
5775;DHT22;2913;51.120;6.772;2023-09-12T16:11:25;26.80;99.90
5775;DHT22;2913;51.120;6.772;2023-09-12T16:13:53;26.70;99.90
5775;DHT22;2913;51.120;6.772;2023-09-12T16:16:20;26.60;99.90
5775;DHT22;2913;51.120;6.772;2023-09-12T16:18:45;26.60;99.90
5775;DHT22;2913;51.120;6.772;2023-09-12T16:21:11;26.50;99.90
5775;DHT22;2913;51.120;6.772;2023-09-12T16:23:39;26.50;99.90
5775;DHT22;2913;51.120;6.772;2023-09-12T16:26:05;26.20;99.90
5775;DHT22;2913;51.120;6.772;2023-09-12T16:28:31;26.20;99.90
5775;DHT22;2913;51.120;6.772;2023-09-12T16:30:56;26.20;99.90
5775;DHT22;2913;51.120;6.772;2023-09-12T16:33:25;26.00;99.90
5775;DHT22;2913;51.120;6.772;2023-09-12T16:35:50;26.00;99.90
5775;DHT22;2913;51.120;6.772;2023-09-12T16:38:16;25.90;99.90
5775;DHT22;2913;51.120;6.772;2023-09-12T16:40:42;26.00;99.90
5775;DHT22;2913;51.120;6.772;2023-09-12T16:43:10;25.70;99.90
5775;DHT22;2913;51.120;6.772;2023-09-12T16:45:35;25.80;99.90
5775;DHT22;2913;51.120;6.772;2023-09-12T16:48:04;25.70;99.90
5775;DHT22;2913;51.120;6.772;2023-09-12T16:50:33;25.50;99.90
5775;DHT22;2913;51.120;6.772;2023-09-12T16:53:01;25.50;99.90
5775;DHT22;2913;51.120;6.772;2023-09-12T16:55:28;25.30;99.90
5775;DHT22;2913;51.120;6.772;2023-09-12T16:57:54;25.20;99.90
5775;DHT22;2913;51.120;6.772;2023-09-12T17:00:21;25.30;99.90
5775;DHT22;2913;51.120;6.772;2023-09-12T17:02:49;25.30;99.90
5775;DHT22;2913;51.120;6.772;2023-09-12T17:05:15;25.40;99.90
5775;DHT22;2913;51.120;6.772;2023-09-12T17:07:40;25.30;99.90
5775;DHT22;2913;51.120;6.772;2023-09-12T17:10:06;25.40;99.90
5775;DHT22;2913;51.120;6.772;2023-09-12T17:12:34;25.40;99.90
5775;DHT22;2913;51.120;6.772;2023-09-12T17:15:02;25.30;99.90
5775;DHT22;2913;51.120;6.772;2023-09-12T17:17:28;25.30;99.90
5775;DHT22;2913;51.120;6.772;2023-09-12T17:19:56;25.20;99.90
5775;DHT22;2913;51.120;6.772;2023-09-12T17:22:24;25.20;99.90
5775;DHT22;2913;51.120;6.772;2023-09-12T17:24:51;25.20;99.90
5775;DHT22;2913;51.120;6.772;2023-09-12T17:27:19;25.10;99.90
5775;DHT22;2913;51.120;6.772;2023-09-12T17:29:45;24.90;99.90
5775;DHT22;2913;51.120;6.772;2023-09-12T17:32:14;24.90;99.90
5775;DHT22;2913;51.120;6.772;2023-09-12T17:34:41;24.90;99.90
5775;DHT22;2913;51.120;6.772;2023-09-12T17:37:07;24.70;99.90
5775;DHT22;2913;51.120;6.772;2023-09-12T17:39:34;24.70;99.90
5775;DHT22;2913;51.120;6.772;2023-09-12T17:41:59;24.80;99.90
5775;DHT22;2913;51.120;6.772;2023-09-12T17:44:25;24.70;99.90
5775;DHT22;2913;51.120;6.772;2023-09-12T17:46:50;24.70;99.90
5775;DHT22;2913;51.120;6.772;2023-09-12T17:49:16;24.60;99.90